Time;durP1;ratioP1;P1;durP2;ratioP2;P2;SDS_P1;SDS_P2;PMS_P1;PMS_P2;Temp;Humidity;BMP_temperature;BMP_pressure;BME280_temperature;BME280_humidity;BME280_pressure;Samples;Min_cycle;Max_cycle;Signal;HPM_P1;HPM_P2
2022/03/06 00:01:18;;;;;;;26.30;7.67;;;-3.00;86.30;;;;;;5045752;28;20700;-64
2022/03/06 00:03:47;;;;;;;24.00;6.97;;;-2.90;86.40;;;;;;5045074;28;20205;-65
2022/03/06 00:06:13;;;;;;;20.37;6.93;;;-3.00;86.50;;;;;;5037715;28;20204;-64
2022/03/06 00:08:40;;;;;;;11.50;5.33;;;-3.00;86.40;;;;;;5037148;28;20536;-64
2022/03/06 00:11:06;;;;;;;1.20;0.50;;;-3.00;86.80;;;;;;5045773;28;20464;-64
2022/03/06 00:13:33;;;;;;;17.40;6.17;;;-3.10;86.90;;;;;;5042929;28;20443;-64
2022/03/06 00:15:59;;;;;;;17.40;6.53;;;-3.10;86.90;;;;;;5045642;28;20429;-64
2022/03/06 00:18:25;;;;;;;21.90;6.70;;;-3.20;87.20;;;;;;5042075;28;20455;-63
2022/03/06 00:20:52;;;;;;;12.27;5.77;;;-3.20;87.20;;;;;;5045256;28;20428;-64
2022/03/06 00:23:17;;;;;;;15.20;6.30;;;-3.20;87.40;;;;;;5039065;28;21236;-62
2022/03/06 00:25:43;;;;;;;20.43;6.30;;;-3.20;87.70;;;;;;5033568;28;20467;-64
2022/03/06 00:28:09;;;;;;;11.27;5.93;;;-3.30;87.40;;;;;;5038213;28;20213;-63
2022/03/06 00:30:34;;;;;;;13.27;6.47;;;-3.30;87.70;;;;;;5037841;28;20761;-64
2022/03/06 00:33:00;;;;;;;18.13;7.10;;;-3.30;88.10;;;;;;5046336;28;20879;-65
2022/03/06 00:35:28;;;;;;;19.10;5.50;;;-3.30;87.70;;;;;;5040348;28;20256;-64
2022/03/06 00:37:55;;;;;;;10.20;5.60;;;-3.30;87.60;;;;;;5046206;28;20201;-63
2022/03/06 00:40:21;;;;;;;25.10;6.60;;;-3.40;87.70;;;;;;5039834;28;20831;-66
2022/03/06 00:42:46;;;;;;;17.33;7.13;;;-3.40;88.00;;;;;;5040191;28;20448;-66
2022/03/06 00:45:12;;;;;;;20.30;6.97;;;-3.50;88.20;;;;;;5046528;28;20194;-63
2022/03/06 00:47:38;;;;;;;13.87;4.87;;;-3.50;88.90;;;;;;5046456;28;20702;-64
2022/03/06 00:50:04;;;;;;;13.30;5.80;;;-3.40;88.40;;;;;;5045374;28;20678;-63
2022/03/06 00:52:30;;;;;;;13.77;6.80;;;-3.40;88.40;;;;;;5045353;28;20243;-63
2022/03/06 00:54:55;;;;;;;3.37;1.97;;;-3.40;88.10;;;;;;5042146;28;20468;-63
2022/03/06 00:57:21;;;;;;;15.27;6.00;;;-3.50;88.10;;;;;;5029987;28;20268;-64
2022/03/06 00:59:47;;;;;;;15.83;6.80;;;-3.50;88.20;;;;;;5040008;28;20202;-64
2022/03/06 01:02:12;;;;;;;1.43;0.50;;;-3.40;88.20;;;;;;5043879;28;20220;-64
2022/03/06 01:04:39;;;;;;;16.20;6.10;;;-3.50;88.30;;;;;;5043208;28;20287;-64
2022/03/06 01:07:05;;;;;;;14.50;6.47;;;-3.50;88.40;;;;;;5041937;28;20294;-62
2022/03/06 01:09:31;;;;;;;20.77;6.97;;;-3.60;88.90;;;;;;5039698;28;20954;-65
2022/03/06 01:11:57;;;;;;;26.43;7.20;;;-3.70;88.90;;;;;;5040590;28;20472;-64
2022/03/06 01:14:23;;;;;;;14.40;5.80;;;-3.60;88.90;;;;;;5040264;28;20677;-64
2022/03/06 01:16:49;;;;;;;18.33;6.53;;;-3.70;88.60;;;;;;5041730;28;20451;-64
2022/03/06 01:19:15;;;;;;;11.00;5.57;;;-3.80;89.10;;;;;;5041079;28;20444;-63
2022/03/06 01:21:40;;;;;;;23.37;8.07;;;-3.80;89.40;;;;;;5042216;28;20442;-62
2022/03/06 01:24:06;;;;;;;21.07;8.93;;;-3.90;89.30;;;;;;5034412;28;20190;-64
2022/03/06 01:26:32;;;;;;;15.67;6.67;;;-4.00;89.50;;;;;;5038661;28;20198;-65
2022/03/06 01:28:58;;;;;;;16.57;6.67;;;-4.00;90.20;;;;;;5035872;28;20516;-63
2022/03/06 01:31:24;;;;;;;15.37;6.07;;;-4.00;90.30;;;;;;5037637;28;20699;-63
2022/03/06 01:33:49;;;;;;;19.73;8.80;;;-4.00;90.50;;;;;;5038515;28;20188;-64
2022/03/06 01:36:15;;;;;;;2.43;0.60;;;-4.00;90.30;;;;;;5041882;28;20456;-63
2022/03/06 01:38:40;;;;;;;3.80;2.37;;;-4.00;90.30;;;;;;5044876;28;20206;-64
2022/03/06 01:41:07;;;;;;;20.53;8.30;;;-3.90;90.30;;;;;;5039267;28;20228;-64
2022/03/06 01:43:33;;;;;;;12.70;1.53;;;-3.90;90.30;;;;;;5039210;28;20676;-65
2022/03/06 01:45:59;;;;;;;15.00;6.43;;;-3.90;90.30;;;;;;5038955;28;20429;-64
2022/03/06 01:48:24;;;;;;;10.33;3.97;;;-3.90;90.20;;;;;;5037565;28;20305;-63
2022/03/06 01:50:50;;;;;;;15.30;6.70;;;-3.90;90.00;;;;;;5035213;28;20205;-64
2022/03/06 01:53:16;;;;;;;18.57;7.70;;;-3.90;89.80;;;;;;5042687;28;20190;-65
2022/03/06 01:55:43;;;;;;;9.47;5.03;;;-4.00;90.00;;;;;;5036372;28;20209;-65
2022/03/06 01:58:11;;;;;;;16.00;5.97;;;-4.00;90.00;;;;;;5041534;28;20586;-64
2022/03/06 02:00:40;;;;;;;4.03;2.10;;;-4.00;90.00;;;;;;5039529;28;20444;-64
2022/03/06 02:03:06;;;;;;;18.30;7.37;;;-4.00;89.90;;;;;;5022918;28;20432;-64
2022/03/06 02:05:32;;;;;;;17.43;7.57;;;-4.10;89.30;;;;;;5039692;28;20459;-65
2022/03/06 02:07:59;;;;;;;15.67;7.63;;;-4.10;90.10;;;;;;5040333;28;20542;-65
2022/03/06 02:10:25;;;;;;;2.87;1.27;;;-4.10;89.80;;;;;;5036572;28;20908;-64
2022/03/06 02:12:51;;;;;;;15.17;6.70;;;-4.20;90.20;;;;;;5039083;28;20492;-64
2022/03/06 02:15:17;;;;;;;17.53;6.13;;;-4.10;89.80;;;;;;5038591;28;20185;-64
2022/03/06 02:17:44;;;;;;;13.20;6.00;;;-4.20;90.00;;;;;;5038034;28;20220;-64
2022/03/06 02:20:21;;;;;;;13.83;5.60;;;-4.20;89.90;;;;;;5037568;28;20519;-64
2022/03/06 02:22:53;;;;;;;8.70;3.47;;;-4.10;90.00;;;;;;5035558;28;20465;-64
2022/03/06 02:25:28;;;;;;;13.83;5.20;;;-4.20;89.60;;;;;;5036038;28;20421;-64
2022/03/06 02:27:58;;;;;;;3.60;2.17;;;-4.20;90.10;;;;;;5042306;28;21095;-64
2022/03/06 02:30:26;;;;;;;16.60;7.17;;;-4.20;90.10;;;;;;5042317;28;20455;-63
2022/03/06 02:32:52;;;;;;;14.00;5.37;;;-4.20;90.10;;;;;;5041809;28;20489;-64
2022/03/06 02:35:19;;;;;;;4.13;3.77;;;-4.20;90.00;;;;;;5040798;28;20421;-63
2022/03/06 02:37:46;;;;;;;5.90;2.43;;;-4.30;90.10;;;;;;5040260;28;20849;-63
2022/03/06 02:40:14;;;;;;;14.33;6.60;;;-4.30;90.10;;;;;;5036919;28;20892;-64
2022/03/06 02:42:43;;;;;;;12.40;5.40;;;-4.40;90.20;;;;;;5041036;28;20898;-63
2022/03/06 02:45:20;;;;;;;9.30;3.40;;;-4.50;90.50;;;;;;5048014;28;20455;-64
2022/03/06 02:47:47;;;;;;;11.90;6.03;;;-4.60;90.60;;;;;;5044899;28;20586;-64
2022/03/06 02:50:15;;;;;;;20.63;6.40;;;-4.60;90.90;;;;;;5043963;28;20927;-62
2022/03/06 02:52:42;;;;;;;6.40;1.83;;;-4.70;91.10;;;;;;5043695;28;20571;-63
2022/03/06 02:55:08;;;;;;;2.33;0.63;;;-4.70;91.20;;;;;;5042096;28;20429;-60
2022/03/06 02:57:34;;;;;;;8.37;1.63;;;-4.70;91.20;;;;;;5045220;28;20447;-63
2022/03/06 03:00:00;;;;;;;14.30;6.73;;;-4.60;91.40;;;;;;5046936;28;20545;-66
2022/03/06 03:02:26;;;;;;;2.90;1.53;;;-4.50;91.40;;;;;;5044325;28;20238;-63
2022/03/06 03:04:51;;;;;;;19.03;7.13;;;-4.50;91.00;;;;;;5025597;28;20230;-63
2022/03/06 03:07:17;;;;;;;17.80;5.40;;;-4.60;91.10;;;;;;5041600;28;20210;-62
2022/03/06 03:09:43;;;;;;;16.87;7.67;;;-4.70;91.30;;;;;;5043497;28;20178;-63
2022/03/06 03:12:09;;;;;;;11.57;6.43;;;-4.70;91.30;;;;;;5041615;28;20255;-62
2022/03/06 03:14:35;;;;;;;14.43;6.40;;;-4.60;91.50;;;;;;5041816;28;20926;-63
2022/03/06 03:17:03;;;;;;;4.57;1.57;;;-4.60;91.30;;;;;;5024843;28;20475;-60
2022/03/06 03:19:29;;;;;;;2.40;0.73;;;-4.60;91.40;;;;;;5041527;28;20424;-63
2022/03/06 03:21:55;;;;;;;14.63;6.37;;;-4.60;91.30;;;;;;5036273;28;20480;-63
2022/03/06 03:24:21;;;;;;;5.43;1.43;;;-4.60;91.50;;;;;;5035597;28;20209;-63
2022/03/06 03:26:47;;;;;;;18.07;7.20;;;-4.60;91.70;;;;;;5037875;28;20488;-62
2022/03/06 03:29:13;;;;;;;13.20;6.30;;;-4.50;91.80;;;;;;5039848;28;20451;-64
2022/03/06 03:31:39;;;;;;;16.07;6.63;;;-4.60;91.50;;;;;;5046082;28;20305;-63
2022/03/06 03:34:04;;;;;;;17.17;7.50;;;-4.70;91.40;;;;;;5041246;28;21302;-63
2022/03/06 03:36:30;;;;;;;5.37;1.73;;;-4.70;91.90;;;;;;5039435;28;20265;-63
2022/03/06 03:38:56;;;;;;;3.00;0.97;;;-4.80;92.00;;;;;;5044947;28;20178;-63
2022/03/06 03:41:24;;;;;;;15.57;6.43;;;-4.70;92.40;;;;;;5036743;28;20182;-63
2022/03/06 03:43:51;;;;;;;15.00;6.20;;;-4.70;92.20;;;;;;5046630;28;20424;-63
2022/03/06 03:46:18;;;;;;;19.50;7.93;;;-4.70;92.30;;;;;;5041578;28;20428;-63
2022/03/06 03:48:44;;;;;;;14.73;6.10;;;-4.70;92.00;;;;;;5043831;28;20819;-63
2022/03/06 03:51:10;;;;;;;18.30;8.00;;;-4.70;92.20;;;;;;5022254;28;21126;-63
2022/03/06 03:53:35;;;;;;;15.00;6.40;;;-4.70;92.20;;;;;;5044377;28;20428;-64
2022/03/06 03:56:01;;;;;;;7.97;2.53;;;-4.70;92.00;;;;;;5037722;28;20434;-63
2022/03/06 03:58:27;;;;;;;17.77;7.17;;;-4.80;91.80;;;;;;5045344;28;20225;-64
2022/03/06 04:00:56;;;;;;;17.20;7.70;;;-4.90;91.80;;;;;;5041558;28;20527;-63
2022/03/06 04:03:23;;;;;;;11.07;5.60;;;-4.90;91.90;;;;;;5041954;28;20681;-65
2022/03/06 04:05:48;;;;;;;2.50;1.50;;;-4.90;92.00;;;;;;5041640;28;20431;-63
2022/03/06 04:08:14;;;;;;;15.57;7.00;;;-5.00;91.90;;;;;;5045104;28;21190;-60
2022/03/06 04:10:40;;;;;;;16.30;6.43;;;-5.00;92.00;;;;;;5041728;28;20206;-62
2022/03/06 04:13:09;;;;;;;16.00;5.63;;;-5.00;92.00;;;;;;5045117;28;20438;-63
2022/03/06 04:15:35;;;;;;;16.87;7.27;;;-5.00;92.00;;;;;;5036187;28;20235;-62
2022/03/06 04:18:01;;;;;;;12.70;5.53;;;-5.10;91.90;;;;;;5036080;28;20455;-63
2022/03/06 04:20:27;;;;;;;13.10;6.60;;;-5.00;92.10;;;;;;5037066;28;20424;-63
2022/03/06 04:22:52;;;;;;;13.63;6.67;;;-5.00;92.20;;;;;;5039185;28;20192;-63
2022/03/06 04:25:18;;;;;;;1.90;1.13;;;-5.00;92.30;;;;;;5035929;28;20778;-62
2022/03/06 04:27:43;;;;;;;4.97;2.27;;;-4.90;92.60;;;;;;5040753;28;20271;-64
2022/03/06 04:30:10;;;;;;;21.90;8.00;;;-4.90;92.30;;;;;;5044324;28;20194;-63
2022/03/06 04:32:37;;;;;;;22.43;7.97;;;-4.90;92.50;;;;;;5045646;28;20654;-63
2022/03/06 04:35:05;;;;;;;17.20;6.73;;;-4.90;92.40;;;;;;5035833;28;20511;-63
2022/03/06 04:37:30;;;;;;;1.10;0.50;;;-4.90;92.30;;;;;;5022755;28;20448;-63
2022/03/06 04:39:56;;;;;;;14.77;6.60;;;-5.00;92.40;;;;;;5042034;28;20468;-64
2022/03/06 04:42:22;;;;;;;11.03;5.37;;;-5.00;92.60;;;;;;5041596;28;20202;-63
2022/03/06 04:44:48;;;;;;;15.43;6.43;;;-5.00;92.40;;;;;;5039616;28;20669;-61
2022/03/06 04:47:13;;;;;;;14.53;6.57;;;-5.00;92.50;;;;;;5041231;28;20456;-62
2022/03/06 04:49:39;;;;;;;18.83;7.13;;;-5.00;92.60;;;;;;5034884;28;20202;-62
2022/03/06 04:52:05;;;;;;;14.13;6.17;;;-5.00;92.70;;;;;;5041250;28;20221;-63
2022/03/06 04:54:30;;;;;;;20.33;7.63;;;-5.00;92.60;;;;;;5038664;28;20194;-64
2022/03/06 04:56:56;;;;;;;17.00;6.43;;;-5.00;92.80;;;;;;5039373;28;20843;-63
2022/03/06 04:59:22;;;;;;;2.03;0.50;;;-5.00;92.60;;;;;;5035970;28;20198;-64
2022/03/06 05:01:47;;;;;;;4.73;2.20;;;-5.00;93.00;;;;;;5040273;28;20516;-64
2022/03/06 05:04:13;;;;;;;15.67;6.73;;;-5.00;92.60;;;;;;5039809;28;20576;-63
2022/03/06 05:06:39;;;;;;;20.03;6.90;;;-5.00;92.80;;;;;;5038786;28;20197;-63
2022/03/06 05:09:04;;;;;;;13.80;6.53;;;-5.00;93.10;;;;;;5027989;28;20590;-63
2022/03/06 05:11:30;;;;;;;18.23;6.83;;;-5.00;92.90;;;;;;5034394;28;20760;-63
2022/03/06 05:13:55;;;;;;;1.90;1.00;;;-5.10;93.00;;;;;;5034700;28;20187;-62
2022/03/06 05:16:21;;;;;;;24.03;7.70;;;-5.10;92.90;;;;;;5042775;28;20311;-62
2022/03/06 05:18:47;;;;;;;1.20;0.50;;;-5.20;92.60;;;;;;5037388;28;20178;-61
2022/03/06 05:21:12;;;;;;;19.20;6.90;;;-5.30;92.50;;;;;;5044518;28;20182;-63
2022/03/06 05:23:38;;;;;;;15.50;6.00;;;-5.50;92.40;;;;;;5031025;28;20245;-62
2022/03/06 05:26:04;;;;;;;18.27;7.70;;;-5.50;92.70;;;;;;5041690;28;20197;-63
2022/03/06 05:28:30;;;;;;;15.77;6.53;;;-5.50;93.00;;;;;;5021157;28;20299;-63
2022/03/06 05:30:55;;;;;;;1.87;0.90;;;-5.40;93.00;;;;;;5042405;28;20253;-63
2022/03/06 05:33:21;;;;;;;10.20;4.80;;;-5.40;92.90;;;;;;5041750;28;20995;-62
2022/03/06 05:35:48;;;;;;;20.57;6.63;;;-5.30;92.80;;;;;;5035062;28;20205;-62
2022/03/06 05:38:14;;;;;;;19.40;7.00;;;-5.40;93.10;;;;;;5040010;28;20579;-63
2022/03/06 05:40:40;;;;;;;16.53;7.23;;;-5.40;93.40;;;;;;5043424;28;20440;-62
2022/03/06 05:43:05;;;;;;;23.03;8.97;;;-5.40;93.40;;;;;;5033775;28;20445;-63
2022/03/06 05:45:31;;;;;;;2.60;1.27;;;-5.40;93.40;;;;;;5037353;28;20436;-62
2022/03/06 05:47:56;;;;;;;6.60;3.67;;;-5.40;93.50;;;;;;5031249;28;20206;-66
2022/03/06 05:50:22;;;;;;;17.43;6.80;;;-5.40;93.50;;;;;;5031400;28;20355;-63
2022/03/06 05:52:51;;;;;;;17.53;7.53;;;-5.30;93.60;;;;;;5027688;28;20648;-63
2022/03/06 05:55:17;;;;;;;19.47;8.10;;;-5.20;93.40;;;;;;5009976;28;20205;-63
2022/03/06 05:57:44;;;;;;;25.47;7.53;;;-5.20;93.20;;;;;;5029726;28;20826;-63
2022/03/06 06:00:10;;;;;;;16.57;7.07;;;-5.20;93.20;;;;;;5035677;28;20464;-63
2022/03/06 06:02:39;;;;;;;16.63;7.27;;;-5.20;93.30;;;;;;5040697;28;20428;-61
2022/03/06 06:05:08;;;;;;;19.50;8.03;;;-5.20;93.40;;;;;;5046626;28;21042;-62
2022/03/06 06:07:34;;;;;;;15.73;7.13;;;-5.30;93.40;;;;;;5046268;28;20673;-64
2022/03/06 06:10:01;;;;;;;16.80;7.73;;;-5.30;93.50;;;;;;5043972;28;20469;-63
2022/03/06 06:12:27;;;;;;;22.13;7.17;;;-5.30;93.50;;;;;;5043930;28;20476;-64
2022/03/06 06:14:53;;;;;;;7.80;3.50;;;-5.30;93.50;;;;;;5042638;28;20427;-62
2022/03/06 06:17:19;;;;;;;3.83;1.50;;;-5.20;93.60;;;;;;5041025;28;20986;-64
2022/03/06 06:19:44;;;;;;;26.33;7.77;;;-5.20;93.60;;;;;;5038984;28;20182;-62
2022/03/06 06:22:10;;;;;;;29.23;9.60;;;-5.20;93.50;;;;;;5034483;28;20700;-63
2022/03/06 06:24:36;;;;;;;22.00;8.63;;;-5.20;93.50;;;;;;5036533;28;20182;-63
2022/03/06 06:27:02;;;;;;;6.30;1.90;;;-5.10;93.60;;;;;;5042433;28;20217;-63
2022/03/06 06:29:28;;;;;;;13.97;6.87;;;-5.10;93.50;;;;;;5045192;28;20196;-64
2022/03/06 06:31:53;;;;;;;18.80;7.30;;;-5.00;93.40;;;;;;5042936;28;20879;-67
2022/03/06 06:34:20;;;;;;;22.97;10.57;;;-5.10;93.30;;;;;;5044993;28;20668;-63
2022/03/06 06:36:46;;;;;;;26.53;9.43;;;-5.00;93.60;;;;;;5034817;28;20568;-64
2022/03/06 06:39:12;;;;;;;19.03;8.67;;;-5.00;93.10;;;;;;5043421;28;20492;-63
2022/03/06 06:41:39;;;;;;;1.50;0.80;;;-5.00;92.90;;;;;;5040001;28;21054;-63
2022/03/06 06:44:06;;;;;;;7.40;3.40;;;-5.00;92.90;;;;;;5043706;28;20505;-66
2022/03/06 06:46:32;;;;;;;23.57;9.90;;;-4.90;93.30;;;;;;5038488;28;20433;-63
2022/03/06 06:48:58;;;;;;;25.60;10.50;;;-4.80;93.30;;;;;;5035772;28;20424;-63
2022/03/06 06:51:23;;;;;;;25.67;11.00;;;-4.70;93.10;;;;;;5031183;28;20478;-63
2022/03/06 06:53:49;;;;;;;1.40;0.70;;;-4.70;92.80;;;;;;5038230;28;20194;-62
2022/03/06 06:56:15;;;;;;;1.67;0.87;;;-4.60;92.80;;;;;;5036880;28;20225;-63
2022/03/06 06:58:41;;;;;;;26.07;10.13;;;-4.60;93.20;;;;;;5040795;28;20688;-64
2022/03/06 07:01:07;;;;;;;29.90;10.70;;;-4.50;93.30;;;;;;5035890;28;20217;-65
2022/03/06 07:03:33;;;;;;;7.43;4.03;;;-4.40;93.40;;;;;;5040580;28;20572;-65
2022/03/06 07:05:59;;;;;;;23.10;8.37;;;-4.30;93.20;;;;;;5034615;28;20421;-65
2022/03/06 07:08:25;;;;;;;29.60;10.00;;;-4.20;92.90;;;;;;5039867;28;20444;-64
2022/03/06 07:10:51;;;;;;;21.70;9.37;;;-4.20;92.90;;;;;;5036390;28;20206;-65
2022/03/06 07:13:16;;;;;;;23.50;10.77;;;-4.00;93.60;;;;;;5042660;28;20439;-65
2022/03/06 07:15:42;;;;;;;16.57;7.60;;;-3.80;93.80;;;;;;5037500;28;20191;-65
2022/03/06 07:18:08;;;;;;;18.67;8.50;;;-3.60;93.80;;;;;;5038716;28;20215;-64
2022/03/06 07:20:33;;;;;;;17.23;8.37;;;-3.40;93.80;;;;;;5035209;28;20293;-63
2022/03/06 07:22:59;;;;;;;1.83;1.13;;;-3.30;93.60;;;;;;5038533;28;20193;-64
2022/03/06 07:25:25;;;;;;;1.57;0.90;;;-3.00;93.90;;;;;;5036878;28;20343;-65
2022/03/06 07:27:51;;;;;;;19.57;8.67;;;-2.80;94.00;;;;;;5044970;28;20678;-64
2022/03/06 07:30:16;;;;;;;19.07;7.83;;;-2.60;94.20;;;;;;5039621;28;20194;-63
2022/03/06 07:32:43;;;;;;;23.00;8.37;;;-2.30;94.20;;;;;;5043541;28;20432;-62
2022/03/06 07:35:10;;;;;;;12.67;4.83;;;-2.00;94.00;;;;;;5039886;28;20197;-64
2022/03/06 07:37:36;;;;;;;26.70;7.10;;;-1.70;94.00;;;;;;5037621;28;20515;-64
2022/03/06 07:40:02;;;;;;;18.20;6.90;;;-1.40;93.70;;;;;;5035333;28;20469;-63
2022/03/06 07:42:28;;;;;;;6.27;2.73;;;-1.10;93.30;;;;;;5040318;28;20691;-66
2022/03/06 07:44:53;;;;;;;15.90;7.17;;;-0.80;93.00;;;;;;5037915;28;20221;-66
2022/03/06 07:47:19;;;;;;;20.10;8.00;;;-0.40;92.70;;;;;;5041956;28;20231;-66
2022/03/06 07:49:45;;;;;;;16.07;7.00;;;0.20;92.10;;;;;;5032957;28;20312;-65
2022/03/06 07:52:10;;;;;;;18.00;6.57;;;0.70;90.50;;;;;;5041171;28;20304;-66
2022/03/06 07:54:36;;;;;;;19.20;6.07;;;1.30;90.10;;;;;;5030892;28;20186;-64
2022/03/06 07:57:02;;;;;;;12.67;7.37;;;1.80;87.00;;;;;;5040073;28;20692;-65
2022/03/06 07:59:28;;;;;;;17.23;6.50;;;2.30;86.40;;;;;;5034467;28;20197;-66
2022/03/06 08:01:54;;;;;;;14.30;6.40;;;2.20;84.40;;;;;;5038920;28;20186;-65
2022/03/06 08:04:20;;;;;;;10.90;4.73;;;2.60;84.50;;;;;;5035168;28;20539;-65
2022/03/06 08:06:47;;;;;;;12.87;6.80;;;2.90;84.10;;;;;;5037752;28;20535;-66
2022/03/06 08:09:13;;;;;;;13.33;6.27;;;3.60;80.70;;;;;;5031928;28;20186;-66
2022/03/06 08:11:39;;;;;;;17.87;6.77;;;3.70;81.10;;;;;;5043656;28;20843;-66
2022/03/06 08:14:04;;;;;;;14.23;7.13;;;4.10;78.20;;;;;;5044655;28;20196;-66
2022/03/06 08:16:30;;;;;;;15.27;6.47;;;4.20;78.00;;;;;;5045634;28;20189;-64
2022/03/06 08:18:56;;;;;;;17.50;8.13;;;4.60;77.00;;;;;;5042618;28;20640;-65
2022/03/06 08:21:22;;;;;;;11.70;6.73;;;4.80;75.80;;;;;;5025975;28;20220;-64
2022/03/06 08:23:49;;;;;;;15.57;6.03;;;4.70;75.60;;;;;;5032190;28;20285;-65
2022/03/06 08:26:15;;;;;;;16.00;6.10;;;4.70;76.20;;;;;;5037920;28;20185;-65
2022/03/06 08:28:41;;;;;;;14.47;6.37;;;4.80;75.70;;;;;;5035522;28;20982;-62
2022/03/06 08:31:06;;;;;;;18.80;6.57;;;4.60;76.30;;;;;;5038092;28;20555;-65
2022/03/06 08:33:32;;;;;;;14.83;6.30;;;4.50;76.10;;;;;;5038689;28;20190;-65
2022/03/06 08:35:57;;;;;;;11.67;6.00;;;5.10;75.90;;;;;;5041380;28;20185;-65
2022/03/06 08:38:23;;;;;;;16.00;7.10;;;5.40;74.30;;;;;;5036102;28;20749;-64
2022/03/06 08:40:49;;;;;;;24.03;5.67;;;5.60;73.30;;;;;;5041051;28;20268;-65
2022/03/06 08:43:14;;;;;;;13.37;6.43;;;5.70;72.90;;;;;;5035636;28;20665;-64
2022/03/06 08:45:40;;;;;;;14.77;7.10;;;5.80;72.50;;;;;;5027365;28;20633;-65
2022/03/06 08:48:06;;;;;;;14.13;5.50;;;6.10;72.10;;;;;;5032430;28;20264;-64
2022/03/06 08:50:31;;;;;;;17.40;6.57;;;5.90;71.10;;;;;;5037776;28;20288;-65
2022/03/06 08:52:57;;;;;;;15.30;6.47;;;6.10;70.80;;;;;;5033901;28;20190;-66
2022/03/06 08:55:23;;;;;;;16.70;7.53;;;5.70;71.90;;;;;;5030767;28;20189;-65
2022/03/06 08:57:48;;;;;;;13.80;6.17;;;5.70;72.10;;;;;;5038571;28;20201;-66
2022/03/06 09:00:14;;;;;;;23.77;7.10;;;5.90;71.60;;;;;;5044524;28;20324;-65
2022/03/06 09:02:40;;;;;;;17.33;6.67;;;6.00;71.40;;;;;;5043491;28;20188;-65
2022/03/06 09:05:06;;;;;;;16.80;7.37;;;6.20;70.70;;;;;;5043530;28;20307;-65
2022/03/06 09:07:31;;;;;;;12.97;4.90;;;5.80;71.80;;;;;;5040191;28;20280;-65
2022/03/06 09:09:57;;;;;;;13.13;6.13;;;5.40;70.30;;;;;;5038606;28;21187;-65
2022/03/06 09:12:26;;;;;;;16.17;7.27;;;5.80;70.70;;;;;;5040961;28;20320;-65
2022/03/06 09:14:52;;;;;;;18.07;7.23;;;5.40;70.10;;;;;;5043081;28;20178;-65
2022/03/06 09:17:18;;;;;;;12.90;6.13;;;5.70;69.00;;;;;;5036062;28;20607;-65
2022/03/06 09:19:44;;;;;;;16.93;6.47;;;5.40;70.20;;;;;;5034718;28;20426;-65
2022/03/06 09:22:10;;;;;;;10.73;4.70;;;4.80;70.00;;;;;;5036099;28;21009;-65
2022/03/06 09:24:35;;;;;;;16.17;5.20;;;4.80;70.10;;;;;;5033503;28;20277;-65
2022/03/06 09:27:01;;;;;;;14.87;6.20;;;5.00;70.40;;;;;;5036711;28;20209;-65
2022/03/06 09:29:27;;;;;;;15.33;7.23;;;5.10;71.80;;;;;;5040205;28;20190;-62
2022/03/06 09:31:53;;;;;;;9.83;5.80;;;4.90;70.00;;;;;;5035412;28;20667;-65
2022/03/06 09:34:19;;;;;;;17.57;7.10;;;4.80;70.90;;;;;;5039112;28;20510;-65
2022/03/06 09:36:45;;;;;;;14.77;5.40;;;4.50;71.30;;;;;;5033361;28;20210;-65
2022/03/06 09:39:13;;;;;;;18.00;6.90;;;4.70;70.50;;;;;;5038965;28;20280;-65
2022/03/06 09:41:39;;;;;;;12.43;5.60;;;4.70;70.30;;;;;;5032443;28;20875;-64
2022/03/06 09:44:08;;;;;;;13.90;5.90;;;4.40;70.60;;;;;;5038573;28;20436;-65
2022/03/06 09:46:35;;;;;;;13.37;6.27;;;4.40;71.10;;;;;;5031594;28;20522;-64
2022/03/06 09:49:06;;;;;;;14.07;6.20;;;4.20;71.20;;;;;;5042936;28;20503;-64
2022/03/06 09:51:38;;;;;;;13.27;5.80;;;4.00;71.50;;;;;;5043940;28;20559;-65
2022/03/06 09:54:04;;;;;;;13.70;5.67;;;3.50;71.80;;;;;;5037847;28;20413;-63
2022/03/06 09:56:30;;;;;;;11.53;4.80;;;3.60;72.40;;;;;;5040815;28;20447;-64
2022/03/06 09:58:56;;;;;;;12.03;5.17;;;3.60;72.90;;;;;;5041102;28;20554;-64
2022/03/06 10:01:21;;;;;;;11.87;6.40;;;3.50;72.20;;;;;;5042647;28;20235;-64
2022/03/06 10:03:47;;;;;;;16.47;5.07;;;3.50;72.40;;;;;;5041731;28;20185;-64
2022/03/06 10:06:12;;;;;;;14.70;4.77;;;3.50;72.10;;;;;;5037495;28;20186;-64
2022/03/06 10:08:38;;;;;;;11.43;5.30;;;3.40;73.40;;;;;;5034414;28;20198;-64
2022/03/06 10:11:07;;;;;;;13.13;6.13;;;3.50;72.70;;;;;;5037803;28;20924;-64
2022/03/06 10:13:36;;;;;;;11.70;4.87;;;3.60;72.70;;;;;;5023265;28;20201;-63
2022/03/06 10:16:08;;;;;;;13.13;5.90;;;3.50;71.40;;;;;;5032546;28;20900;-63
2022/03/06 10:18:50;;;;;;;14.20;6.10;;;3.60;72.50;;;;;;5033243;28;20519;-64
2022/03/06 10:21:17;;;;;;;16.00;5.03;;;3.70;70.90;;;;;;5025528;28;20431;-64
2022/03/06 10:23:44;;;;;;;13.00;5.47;;;3.90;69.10;;;;;;5009858;28;20457;-63
2022/03/06 10:26:12;;;;;;;11.60;4.33;;;3.70;68.60;;;;;;5027890;28;20486;-65
2022/03/06 10:28:50;;;;;;;13.87;4.90;;;3.80;69.60;;;;;;5032030;28;20516;-65
2022/03/06 10:31:17;;;;;;;9.57;4.77;;;3.80;70.40;;;;;;5031109;28;20575;-63
2022/03/06 10:34:05;;;;;;;11.10;5.87;;;4.00;70.60;;;;;;5029631;28;20425;-65
2022/03/06 10:36:34;;;;;;;22.47;6.00;;;4.10;69.20;;;;;;5032857;28;20908;-64
2022/03/06 10:39:01;;;;;;;12.13;4.93;;;4.10;69.20;;;;;;5035445;28;20439;-64
2022/03/06 10:41:35;;;;;;;15.40;6.80;;;4.00;69.20;;;;;;5031558;28;20424;-64
2022/03/06 10:44:02;;;;;;;12.43;5.23;;;4.20;67.30;;;;;;5034154;28;21124;-64
2022/03/06 10:46:27;;;;;;;18.57;5.73;;;4.40;66.00;;;;;;5038133;28;20526;-64
2022/03/06 10:49:14;;;;;;;8.67;4.37;;;4.50;65.50;;;;;;5038583;28;20435;-65
2022/03/06 10:51:45;;;;;;;12.00;5.10;;;4.70;65.60;;;;;;5024257;28;20300;-62
2022/03/06 10:54:14;;;;;;;16.77;5.53;;;4.70;65.60;;;;;;5043310;28;20473;-65
2022/03/06 10:56:43;;;;;;;9.27;5.37;;;4.90;64.70;;;;;;5038475;28;20432;-64
2022/03/06 10:59:09;;;;;;;13.00;5.03;;;5.00;64.40;;;;;;5030966;28;21065;-64
2022/03/06 11:01:36;;;;;;;12.23;5.37;;;5.00;63.30;;;;;;5044362;28;20486;-65
2022/03/06 11:04:04;;;;;;;17.33;6.07;;;5.10;63.90;;;;;;5034269;28;20936;-65
2022/03/06 11:06:37;;;;;;;15.67;5.33;;;4.80;63.10;;;;;;5036237;28;20516;-63
2022/03/06 11:09:03;;;;;;;12.60;5.07;;;4.60;64.20;;;;;;5035023;28;20515;-63
2022/03/06 11:11:31;;;;;;;12.77;6.00;;;4.30;64.40;;;;;;5036072;28;20491;-66
2022/03/06 11:13:57;;;;;;;12.10;5.13;;;4.30;65.30;;;;;;5034765;28;20414;-65
2022/03/06 11:16:23;;;;;;;14.33;5.50;;;4.30;65.80;;;;;;5038582;28;20927;-65
2022/03/06 11:18:50;;;;;;;18.37;6.27;;;4.30;64.80;;;;;;5031047;28;20425;-66
2022/03/06 11:21:16;;;;;;;10.53;5.23;;;4.20;65.40;;;;;;5040930;28;20314;-65
2022/03/06 11:23:48;;;;;;;10.40;5.07;;;4.30;63.80;;;;;;5026816;28;20432;-66
2022/03/06 11:26:14;;;;;;;12.43;4.77;;;4.20;64.30;;;;;;5034951;28;20834;-66
2022/03/06 11:29:04;;;;;;;14.80;5.07;;;4.10;65.40;;;;;;5026843;28;20541;-66
2022/03/06 11:31:47;;;;;;;10.40;5.00;;;4.30;65.30;;;;;;5036695;28;20217;-67
2022/03/06 11:34:28;;;;;;;13.23;5.30;;;5.00;64.50;;;;;;5040810;28;20416;-65
2022/03/06 11:36:56;;;;;;;10.87;4.67;;;5.50;63.80;;;;;;5035708;28;20502;-66
2022/03/06 11:39:31;;;;;;;10.37;4.20;;;4.90;63.30;;;;;;5036401;28;20466;-67
2022/03/06 11:42:02;;;;;;;11.20;5.33;;;4.90;64.00;;;;;;5033027;28;20515;-66
2022/03/06 11:44:47;;;;;;;11.47;5.27;;;4.80;64.20;;;;;;5042303;28;20431;-67
2022/03/06 11:47:22;;;;;;;17.80;5.20;;;4.80;64.50;;;;;;5042790;28;20467;-66
2022/03/06 11:49:56;;;;;;;13.23;5.50;;;4.80;64.00;;;;;;5033083;28;20467;-66
2022/03/06 11:52:36;;;;;;;16.00;6.90;;;4.80;64.80;;;;;;5041957;28;20525;-66
2022/03/06 11:55:29;;;;;;;14.53;6.27;;;4.70;63.70;;;;;;5039585;28;21006;-66
2022/03/06 11:57:55;;;;;;;17.73;5.57;;;4.90;63.70;;;;;;5036934;28;20440;-65
2022/03/06 12:00:26;;;;;;;12.30;5.40;;;4.90;63.70;;;;;;5036371;28;20448;-65
2022/03/06 12:02:55;;;;;;;12.30;5.23;;;4.90;63.10;;;;;;5040085;28;20190;-66
2022/03/06 12:05:22;;;;;;;20.53;6.40;;;4.80;63.90;;;;;;5039330;28;20963;-65
2022/03/06 12:07:49;;;;;;;10.80;5.40;;;4.70;64.50;;;;;;5020668;28;20447;-67
2022/03/06 12:10:17;;;;;;;13.70;4.87;;;4.60;64.20;;;;;;5037191;28;20479;-65
2022/03/06 12:12:43;;;;;;;15.90;5.67;;;4.70;63.90;;;;;;5037867;28;20494;-67
2022/03/06 12:15:16;;;;;;;11.40;5.97;;;4.80;63.80;;;;;;5037767;28;20998;-66
2022/03/06 12:17:43;;;;;;;9.53;4.73;;;4.80;63.60;;;;;;5037307;28;20206;-65
2022/03/06 12:20:08;;;;;;;12.77;5.20;;;4.90;63.10;;;;;;5035011;28;20514;-66
2022/03/06 12:22:35;;;;;;;11.83;5.70;;;5.10;62.90;;;;;;5034088;28;20459;-65
2022/03/06 12:25:06;;;;;;;12.13;4.77;;;5.00;62.40;;;;;;5036900;28;20290;-66
2022/03/06 12:27:33;;;;;;;12.43;4.93;;;5.00;62.30;;;;;;5035442;28;20441;-66
2022/03/06 12:30:04;;;;;;;14.60;5.00;;;4.90;62.30;;;;;;5034459;28;20519;-66
2022/03/06 12:32:33;;;;;;;13.43;5.43;;;4.80;62.70;;;;;;5044611;28;21172;-65
2022/03/06 12:35:02;;;;;;;16.13;5.30;;;4.80;63.10;;;;;;5037784;28;21400;-64
2022/03/06 12:37:30;;;;;;;14.93;5.50;;;4.70;63.70;;;;;;5033977;28;20474;-64
2022/03/06 12:39:58;;;;;;;13.37;4.53;;;4.70;62.90;;;;;;5034311;28;20456;-64
2022/03/06 12:42:31;;;;;;;12.03;5.23;;;4.60;62.70;;;;;;5034486;28;20460;-64